Time;durP1;ratioP1;P1;durP2;ratioP2;P2;SDS_P1;SDS_P2;PMS_P1;PMS_P2;Temp;Humidity;BMP_temperature;BMP_pressure;BME280_temperature;BME280_humidity;BME280_pressure;Samples;Min_cycle;Max_cycle;Signal;HPM_P1;HPM_P2
2023/11/22 00:00:08;;;;;;;1.40;1.00;;;21.30;58.90;;;;;;5033374;28;20238;-67
2023/11/22 00:02:34;;;;;;;1.47;1.00;;;21.30;58.90;;;;;;5032132;28;20174;-68
2023/11/22 00:05:00;;;;;;;1.30;1.07;;;21.30;58.90;;;;;;5031539;28;20450;-68
2023/11/22 00:07:28;;;;;;;1.57;1.20;;;21.30;58.90;;;;;;5031768;28;20442;-68
2023/11/22 00:09:54;;;;;;;1.27;1.17;;;21.30;58.90;;;;;;5031431;28;20183;-68
2023/11/22 00:12:20;;;;;;;1.40;1.10;;;21.30;58.90;;;;;;5031793;28;20414;-68
2023/11/22 00:14:47;;;;;;;1.23;1.13;;;21.30;58.90;;;;;;5031503;28;20183;-67
2023/11/22 00:17:12;;;;;;;1.10;0.87;;;21.30;58.90;;;;;;5031492;28;20180;-68
2023/11/22 00:19:38;;;;;;;1.40;1.07;;;21.30;58.90;;;;;;5032201;28;20410;-69
2023/11/22 00:22:11;;;;;;;1.30;1.07;;;21.30;58.90;;;;;;5035220;28;20175;-67
2023/11/22 00:24:37;;;;;;;1.80;1.20;;;21.30;58.90;;;;;;5035014;28;20160;-68
2023/11/22 00:27:03;;;;;;;1.20;1.10;;;21.30;58.90;;;;;;5036867;28;20433;-68
2023/11/22 00:29:28;;;;;;;1.47;1.00;;;21.30;58.90;;;;;;5035809;28;20188;-68
2023/11/22 00:31:54;;;;;;;1.50;1.20;;;21.30;58.90;;;;;;5035870;28;20167;-67
2023/11/22 00:34:19;;;;;;;1.20;0.97;;;21.30;58.90;;;;;;5036091;28;20845;-67
2023/11/22 00:36:45;;;;;;;1.20;0.90;;;21.30;58.90;;;;;;5035551;28;20192;-68
2023/11/22 00:39:12;;;;;;;1.37;1.10;;;21.30;58.90;;;;;;5036069;28;20253;-68
2023/11/22 00:41:39;;;;;;;1.57;1.10;;;21.30;58.90;;;;;;5036086;28;20578;-68
2023/11/22 00:44:05;;;;;;;1.27;1.10;;;21.30;58.90;;;;;;5035736;28;20792;-67
2023/11/22 00:46:31;;;;;;;1.20;1.10;;;21.30;58.90;;;;;;5035878;28;20450;-68
2023/11/22 00:48:57;;;;;;;1.17;1.07;;;21.30;58.90;;;;;;5035626;28;20458;-68
2023/11/22 00:51:23;;;;;;;1.10;1.00;;;21.30;58.90;;;;;;5035558;28;20440;-68
2023/11/22 00:53:49;;;;;;;1.63;1.20;;;21.30;58.90;;;;;;5035485;28;20178;-67
2023/11/22 00:56:15;;;;;;;1.73;1.00;;;21.30;58.90;;;;;;5035784;28;20254;-68
2023/11/22 00:58:40;;;;;;;1.33;1.20;;;21.30;58.90;;;;;;5035427;28;20545;-68
2023/11/22 01:01:06;;;;;;;1.00;0.83;;;21.30;58.90;;;;;;5035592;28;20200;-68
2023/11/22 01:03:32;;;;;;;1.33;1.00;;;21.30;58.90;;;;;;5035449;28;20179;-68
2023/11/22 01:05:57;;;;;;;1.20;1.00;;;21.30;58.90;;;;;;5035056;28;20691;-68
2023/11/22 01:08:23;;;;;;;1.30;1.10;;;21.30;58.90;;;;;;5034751;28;20184;-68
2023/11/22 01:10:49;;;;;;;1.80;1.10;;;21.30;58.90;;;;;;5034543;28;20199;-68
2023/11/22 01:13:14;;;;;;;1.30;1.00;;;21.30;59.00;;;;;;5034409;28;20172;-68
2023/11/22 01:15:41;;;;;;;1.10;1.00;;;21.20;58.80;;;;;;5034597;28;20709;-68
2023/11/22 01:18:07;;;;;;;1.20;1.00;;;21.30;58.90;;;;;;5034207;28;20282;-67
2023/11/22 01:20:33;;;;;;;1.30;1.20;;;21.20;58.90;;;;;;5034500;28;20508;-68
2023/11/22 01:22:58;;;;;;;1.20;1.00;;;21.20;58.90;;;;;;5034195;28;20179;-68
2023/11/22 01:25:24;;;;;;;2.43;1.30;;;21.20;58.90;;;;;;5034021;28;20199;-68
2023/11/22 01:27:50;;;;;;;1.67;1.00;;;21.20;58.90;;;;;;5034113;28;20652;-67
2023/11/22 01:30:16;;;;;;;1.40;1.17;;;21.20;58.90;;;;;;5034824;28;20168;-68
2023/11/22 01:32:41;;;;;;;1.40;1.10;;;21.20;58.90;;;;;;5033332;28;20175;-68
2023/11/22 01:35:07;;;;;;;1.00;0.80;;;21.20;58.90;;;;;;5034689;28;20180;-67
2023/11/22 01:37:33;;;;;;;1.40;1.00;;;21.20;58.90;;;;;;5034458;28;20184;-68
2023/11/22 01:39:58;;;;;;;1.30;1.10;;;21.20;58.90;;;;;;5034353;28;20211;-68
2023/11/22 01:42:25;;;;;;;1.50;1.27;;;21.20;58.90;;;;;;5034064;28;20183;-67
2023/11/22 01:44:52;;;;;;;1.00;0.90;;;21.20;58.90;;;;;;5034270;28;20206;-69
2023/11/22 01:47:18;;;;;;;1.30;1.10;;;21.20;58.90;;;;;;5033951;28;20426;-67
2023/11/22 01:49:44;;;;;;;1.60;1.00;;;21.20;58.90;;;;;;5016303;28;20425;-67
2023/11/22 01:52:10;;;;;;;1.30;1.20;;;21.20;58.90;;;;;;5034641;28;20206;-67
2023/11/22 01:54:36;;;;;;;1.87;0.90;;;21.20;58.90;;;;;;5034250;28;20439;-68
2023/11/22 01:57:03;;;;;;;1.70;1.30;;;21.20;58.90;;;;;;5034262;28;20183;-68
2023/11/22 01:59:30;;;;;;;1.17;1.07;;;21.20;58.90;;;;;;5033874;28;20786;-68
2023/11/22 02:01:56;;;;;;;1.63;1.20;;;21.20;58.90;;;;;;5034036;28;20431;-68
2023/11/22 02:04:22;;;;;;;1.20;0.90;;;21.20;58.90;;;;;;5033543;28;20515;-67
2023/11/22 02:06:47;;;;;;;1.67;1.40;;;21.20;58.90;;;;;;5033455;28;20200;-68
2023/11/22 02:09:15;;;;;;;1.33;1.10;;;21.20;58.90;;;;;;5033415;28;20171;-68
2023/11/22 02:11:42;;;;;;;1.40;1.07;;;21.20;58.90;;;;;;5033327;28;20195;-68
2023/11/22 02:14:08;;;;;;;1.37;1.10;;;21.20;58.90;;;;;;5033316;28;20410;-68
2023/11/22 02:16:36;;;;;;;1.70;1.40;;;21.20;58.90;;;;;;5033334;28;20515;-68
2023/11/22 02:19:02;;;;;;;1.40;1.10;;;21.20;58.90;;;;;;5033589;28;20445;-67
2023/11/22 02:21:27;;;;;;;1.30;1.20;;;21.20;58.90;;;;;;5033462;28;20418;-67
2023/11/22 02:23:53;;;;;;;1.50;1.10;;;21.20;59.50;;;;;;5033275;28;20831;-67
2023/11/22 02:26:19;;;;;;;1.27;1.07;;;21.20;58.90;;;;;;5032935;28;20206;-67
2023/11/22 02:28:44;;;;;;;1.47;1.20;;;21.20;58.90;;;;;;5032925;28;20172;-68
2023/11/22 02:31:10;;;;;;;1.40;1.10;;;21.20;58.90;;;;;;5033383;28;20179;-67
2023/11/22 02:33:36;;;;;;;1.83;1.17;;;21.20;58.90;;;;;;5033205;28;20164;-68
2023/11/22 02:36:02;;;;;;;1.50;1.20;;;21.20;58.90;;;;;;5032989;28;20184;-67
2023/11/22 02:38:28;;;;;;;1.03;0.90;;;21.20;58.90;;;;;;5032991;28;20179;-68
2023/11/22 02:40:54;;;;;;;1.20;1.10;;;21.10;58.80;;;;;;5032785;28;20440;-68
2023/11/22 02:43:20;;;;;;;1.50;1.10;;;21.10;58.80;;;;;;5032718;28;20441;-66
2023/11/22 02:45:47;;;;;;;1.07;0.97;;;21.10;58.80;;;;;;5015336;28;21023;-67
2023/11/22 02:48:13;;;;;;;1.33;1.10;;;21.10;58.80;;;;;;5033629;28;20431;-68
2023/11/22 02:50:39;;;;;;;1.43;1.20;;;21.10;58.80;;;;;;5033188;28;20907;-68
2023/11/22 02:53:05;;;;;;;1.97;0.90;;;21.10;58.80;;;;;;5032820;28;20505;-67
2023/11/22 02:55:30;;;;;;;1.00;0.90;;;21.10;58.80;;;;;;5032887;28;20175;-67
2023/11/22 02:57:56;;;;;;;1.23;0.90;;;21.10;58.80;;;;;;5033046;28;20697;-67
2023/11/22 03:00:22;;;;;;;1.20;1.00;;;21.10;58.80;;;;;;5033249;28;20160;-67
2023/11/22 03:02:53;;;;;;;1.40;1.13;;;21.10;58.80;;;;;;5032615;28;20724;-68
2023/11/22 03:05:22;;;;;;;1.83;0.93;;;21.10;58.80;;;;;;5033362;28;20664;-67
2023/11/22 03:07:50;;;;;;;1.37;1.20;;;21.10;58.80;;;;;;5033130;28;20418;-67
2023/11/22 03:10:17;;;;;;;1.17;1.00;;;21.10;58.80;;;;;;5032857;28;20507;-67
2023/11/22 03:12:43;;;;;;;1.13;0.90;;;21.10;58.80;;;;;;5032769;28;20425;-66
2023/11/22 03:15:09;;;;;;;1.10;1.00;;;21.10;58.80;;;;;;5032425;28;20418;-68
2023/11/22 03:17:35;;;;;;;1.50;1.10;;;21.10;58.80;;;;;;5032151;28;20207;-67
2023/11/22 03:20:00;;;;;;;1.20;0.90;;;21.10;58.80;;;;;;5032036;28;20250;-68
2023/11/22 03:22:30;;;;;;;1.57;1.20;;;21.10;58.80;;;;;;5032053;28;20553;-68
2023/11/22 03:24:56;;;;;;;2.07;1.20;;;21.10;58.80;;;;;;5032157;28;20754;-68
2023/11/22 03:27:23;;;;;;;1.40;1.10;;;21.10;58.80;;;;;;5032441;28;20434;-68
2023/11/22 03:29:49;;;;;;;1.40;1.10;;;21.10;58.80;;;;;;5032095;28;20430;-67
2023/11/22 03:32:14;;;;;;;1.37;1.27;;;21.10;58.80;;;;;;5032108;28;20411;-67
2023/11/22 03:34:40;;;;;;;1.30;0.97;;;21.10;58.80;;;;;;5031977;28;20425;-67
2023/11/22 03:37:07;;;;;;;1.60;1.20;;;21.10;58.80;;;;;;5032034;28;20665;-68
2023/11/22 03:39:32;;;;;;;1.27;0.90;;;21.10;58.80;;;;;;5031931;28;20206;-68
2023/11/22 03:41:58;;;;;;;1.30;1.20;;;21.10;58.80;;;;;;5031907;28;20450;-68
2023/11/22 03:44:23;;;;;;;1.30;1.10;;;21.10;58.80;;;;;;5031957;28;20179;-68
2023/11/22 03:46:49;;;;;;;1.90;1.50;;;21.10;58.80;;;;;;5031726;28;20700;-68
2023/11/22 03:49:15;;;;;;;1.50;1.30;;;21.10;58.80;;;;;;5014161;28;20194;-68
2023/11/22 03:51:42;;;;;;;1.50;1.10;;;21.10;58.80;;;;;;5031514;28;20214;-68
2023/11/22 03:54:10;;;;;;;1.10;1.00;;;21.10;58.80;;;;;;5032112;28;20199;-68
2023/11/22 03:56:36;;;;;;;1.20;1.00;;;21.10;58.80;;;;;;5035649;28;20426;-68
2023/11/22 03:59:03;;;;;;;1.20;0.97;;;21.10;58.80;;;;;;5035808;28;20441;-68
2023/11/22 04:01:29;;;;;;;1.40;1.30;;;21.10;58.80;;;;;;5018041;28;20196;-68
2023/11/22 04:03:54;;;;;;;1.57;1.10;;;21.10;58.80;;;;;;5036080;28;20421;-67
2023/11/22 04:06:20;;;;;;;1.33;1.00;;;21.10;58.80;;;;;;5036560;28;20207;-66
2023/11/22 04:08:47;;;;;;;1.37;1.27;;;21.10;58.80;;;;;;5018647;28;20207;-67
2023/11/22 04:11:13;;;;;;;1.50;1.20;;;21.10;58.80;;;;;;5036403;28;20286;-68
2023/11/22 04:13:39;;;;;;;1.23;1.00;;;21.10;58.80;;;;;;5036224;28;20545;-68
2023/11/22 04:16:08;;;;;;;1.30;1.20;;;21.10;58.80;;;;;;5036604;28;20180;-67
2023/11/22 04:18:35;;;;;;;1.30;1.20;;;21.10;58.80;;;;;;5036284;28;20604;-68
2023/11/22 04:21:03;;;;;;;1.37;1.00;;;21.10;58.80;;;;;;5035885;28;20533;-68
2023/11/22 04:23:28;;;;;;;1.60;1.30;;;21.10;58.80;;;;;;5036056;28;20422;-67
2023/11/22 04:25:54;;;;;;;1.70;1.00;;;21.10;58.80;;;;;;5036038;28;20545;-68
2023/11/22 04:28:19;;;;;;;1.40;1.10;;;21.10;58.80;;;;;;5036093;28;20203;-68
2023/11/22 04:30:45;;;;;;;1.10;0.97;;;21.10;58.80;;;;;;5036132;28;20559;-68
2023/11/22 04:33:10;;;;;;;2.00;1.20;;;21.10;58.80;;;;;;5035816;28;20202;-68
2023/11/22 04:35:38;;;;;;;1.10;1.00;;;21.00;58.70;;;;;;5035665;28;20267;-67
2023/11/22 04:38:04;;;;;;;1.20;1.10;;;21.10;58.80;;;;;;5035045;28;20257;-68
2023/11/22 04:40:30;;;;;;;1.37;1.27;;;21.00;58.70;;;;;;5035210;28;20410;-68
2023/11/22 04:42:55;;;;;;;1.30;1.20;;;21.00;59.30;;;;;;5035328;28;20179;-68
2023/11/22 04:45:21;;;;;;;1.37;1.27;;;21.00;58.70;;;;;;5035102;28;20449;-68
2023/11/22 04:47:47;;;;;;;1.77;1.20;;;21.00;58.70;;;;;;5035164;28;20195;-68
2023/11/22 04:50:12;;;;;;;1.60;1.17;;;21.00;58.70;;;;;;5034945;28;20203;-68
2023/11/22 04:52:39;;;;;;;1.87;1.67;;;21.00;58.70;;;;;;5035183;28;20226;-68
2023/11/22 04:55:05;;;;;;;1.40;1.00;;;21.00;58.70;;;;;;5034773;28;20646;-68
2023/11/22 04:57:31;;;;;;;1.20;1.10;;;21.00;58.70;;;;;;5035105;28;20438;-67
2023/11/22 04:59:57;;;;;;;1.40;1.00;;;21.00;58.70;;;;;;5034591;28;20434;-67
2023/11/22 05:02:23;;;;;;;1.60;1.30;;;21.00;58.70;;;;;;5034745;28;20182;-68
2023/11/22 05:04:49;;;;;;;1.53;1.20;;;21.00;58.70;;;;;;5035064;28;20183;-68
2023/11/22 05:07:15;;;;;;;1.77;1.10;;;21.00;58.70;;;;;;5032309;28;20273;-68
2023/11/22 05:09:43;;;;;;;1.30;1.20;;;21.00;58.70;;;;;;5034587;28;20430;-67
2023/11/22 05:12:10;;;;;;;1.30;1.20;;;21.00;58.70;;;;;;5034655;28;20414;-68
2023/11/22 05:14:36;;;;;;;1.50;1.23;;;21.00;58.70;;;;;;5033074;28;20414;-68
2023/11/22 05:17:01;;;;;;;1.70;1.37;;;21.00;58.70;;;;;;5035356;28;20434;-68
2023/11/22 05:19:27;;;;;;;2.43;1.30;;;21.00;58.70;;;;;;5035641;28;20183;-68
2023/11/22 05:21:52;;;;;;;1.47;1.30;;;21.00;58.70;;;;;;5034850;28;20203;-66
2023/11/22 05:24:18;;;;;;;1.30;1.20;;;21.00;58.70;;;;;;5017274;28;20179;-67
2023/11/22 05:26:44;;;;;;;1.27;1.17;;;21.00;58.70;;;;;;5035365;28;20215;-68
2023/11/22 05:29:09;;;;;;;1.30;1.10;;;21.00;58.80;;;;;;5035310;28;20172;-68
2023/11/22 05:31:37;;;;;;;1.50;1.10;;;21.00;58.80;;;;;;5034899;28;20227;-68
2023/11/22 05:34:02;;;;;;;1.50;1.17;;;21.00;58.70;;;;;;5034734;28;20630;-68
2023/11/22 05:36:28;;;;;;;2.07;1.30;;;21.00;58.70;;;;;;5034774;28;20423;-67
2023/11/22 05:38:55;;;;;;;1.53;0.97;;;21.00;58.70;;;;;;5034770;28;20182;-67
2023/11/22 05:41:20;;;;;;;1.40;1.30;;;21.00;58.70;;;;;;5034791;28;20266;-67
2023/11/22 05:43:46;;;;;;;1.40;1.23;;;21.00;58.80;;;;;;5034675;28;20868;-68
2023/11/22 05:46:12;;;;;;;1.60;1.30;;;21.00;58.70;;;;;;5034476;28;20203;-68
2023/11/22 05:48:38;;;;;;;1.90;1.20;;;21.00;58.70;;;;;;5034089;28;20291;-67
2023/11/22 05:51:03;;;;;;;1.90;1.70;;;21.00;58.80;;;;;;5033859;28;20886;-67
2023/11/22 05:53:29;;;;;;;1.33;1.10;;;21.00;58.70;;;;;;5034177;28;20176;-66
2023/11/22 05:55:55;;;;;;;1.37;1.10;;;21.00;58.70;;;;;;5034107;28;20936;-68
2023/11/22 05:58:21;;;;;;;1.50;1.30;;;21.00;59.30;;;;;;5033733;28;20295;-67
2023/11/22 06:00:47;;;;;;;1.30;1.20;;;21.00;58.70;;;;;;5016122;28;21071;-68
2023/11/22 06:03:13;;;;;;;1.73;1.63;;;21.00;58.70;;;;;;5034321;28;20497;-68
2023/11/22 06:05:39;;;;;;;2.10;1.33;;;21.00;58.70;;;;;;5034177;28;20951;-67
2023/11/22 06:08:05;;;;;;;1.40;1.20;;;21.00;58.70;;;;;;5033777;28;20430;-67
2023/11/22 06:10:31;;;;;;;1.57;1.40;;;21.00;58.70;;;;;;5016084;28;20712;-68
2023/11/22 06:12:56;;;;;;;1.57;1.23;;;21.00;58.70;;;;;;5034190;28;20539;-68
2023/11/22 06:15:23;;;;;;;1.33;1.23;;;21.00;58.70;;;;;;5033699;28;20182;-68
2023/11/22 06:17:49;;;;;;;2.33;1.60;;;21.00;58.70;;;;;;5033228;28;20573;-67
2023/11/22 06:20:15;;;;;;;1.77;1.40;;;21.00;58.70;;;;;;5033939;28;20777;-68
2023/11/22 06:22:42;;;;;;;1.40;1.30;;;21.00;58.70;;;;;;5033286;28;20513;-67
2023/11/22 06:25:13;;;;;;;1.70;1.27;;;21.00;58.70;;;;;;5033385;28;20496;-67
2023/11/22 06:27:40;;;;;;;2.00;1.47;;;21.00;58.60;;;;;;5032739;28;20426;-68
2023/11/22 06:30:06;;;;;;;1.77;1.57;;;21.00;58.60;;;;;;5034400;28;20441;-66
2023/11/22 06:32:33;;;;;;;2.50;1.87;;;21.00;58.60;;;;;;5016342;28;20411;-67
2023/11/22 06:34:59;;;;;;;1.80;1.70;;;21.00;58.60;;;;;;5034134;28;20419;-67
2023/11/22 06:37:25;;;;;;;1.93;1.63;;;21.00;58.60;;;;;;5034093;28;20480;-67
2023/11/22 06:39:51;;;;;;;1.60;1.40;;;21.00;58.60;;;;;;5033417;28;20164;-67
2023/11/22 06:42:17;;;;;;;1.50;1.40;;;21.00;58.60;;;;;;5034167;28;20473;-67
2023/11/22 06:44:43;;;;;;;2.20;1.57;;;21.00;58.60;;;;;;5033780;28;20190;-66
2023/11/22 06:47:09;;;;;;;1.47;1.30;;;21.00;58.60;;;;;;5033408;28;20431;-67
2023/11/22 06:49:34;;;;;;;1.97;1.60;;;21.00;58.60;;;;;;5033603;28;20198;-68
2023/11/22 06:52:00;;;;;;;2.67;2.10;;;21.00;58.50;;;;;;5033718;28;20175;-67
2023/11/22 06:54:26;;;;;;;2.43;1.87;;;21.00;58.50;;;;;;5033695;28;20676;-66
2023/11/22 06:56:52;;;;;;;3.60;2.30;;;21.00;58.40;;;;;;5034408;28;20521;-67
2023/11/22 06:59:18;;;;;;;2.70;2.43;;;21.00;58.40;;;;;;5015602;28;20199;-68
2023/11/22 07:01:45;;;;;;;2.03;1.83;;;21.00;58.30;;;;;;5033457;28;20426;-67
2023/11/22 07:04:11;;;;;;;2.00;1.80;;;21.10;58.40;;;;;;5032863;28;20423;-67
2023/11/22 07:06:39;;;;;;;2.50;1.93;;;21.10;58.40;;;;;;5032962;28;20522;-67
2023/11/22 07:09:05;;;;;;;2.00;1.80;;;21.10;58.40;;;;;;5033345;28;20708;-68
2023/11/22 07:11:31;;;;;;;1.63;1.53;;;21.10;58.40;;;;;;5032993;28;20414;-68
2023/11/22 07:14:00;;;;;;;2.47;2.13;;;21.10;58.30;;;;;;5033557;28;20406;-67
2023/11/22 07:16:26;;;;;;;2.40;1.73;;;21.10;58.30;;;;;;5032847;28;20175;-67
2023/11/22 07:18:51;;;;;;;2.97;2.30;;;21.10;58.30;;;;;;5032952;28;20410;-67
2023/11/22 07:21:17;;;;;;;2.23;2.03;;;21.10;58.30;;;;;;5032989;28;20241;-67
2023/11/22 07:23:45;;;;;;;4.60;1.90;;;21.10;58.30;;;;;;5033012;28;20175;-67
2023/11/22 07:26:11;;;;;;;2.03;1.83;;;21.10;58.30;;;;;;5014762;28;20195;-68
2023/11/22 07:28:36;;;;;;;3.37;2.73;;;21.10;58.30;;;;;;5032559;28;20437;-68
2023/11/22 07:31:05;;;;;;;3.30;2.30;;;21.10;58.30;;;;;;5032197;28;20417;-66
2023/11/22 07:33:31;;;;;;;2.90;2.37;;;21.10;58.30;;;;;;5032913;28;20175;-68
2023/11/22 07:35:58;;;;;;;2.10;1.90;;;21.10;58.30;;;;;;5033228;28;20406;-67
2023/11/22 07:38:24;;;;;;;2.60;2.27;;;21.10;58.30;;;;;;5033270;28;20191;-68
2023/11/22 07:40:50;;;;;;;4.07;2.30;;;21.10;58.30;;;;;;5032649;28;20418;-67
2023/11/22 07:43:16;;;;;;;2.37;1.80;;;21.10;58.30;;;;;;5033111;28;20414;-67
2023/11/22 07:45:43;;;;;;;3.27;2.20;;;21.10;58.20;;;;;;5033079;28;20874;-67
2023/11/22 07:48:11;;;;;;;2.30;1.83;;;21.10;58.30;;;;;;5033177;28;20190;-68
2023/11/22 07:50:39;;;;;;;4.67;2.27;;;21.10;58.30;;;;;;5033101;28;20403;-67
2023/11/22 07:53:04;;;;;;;2.80;2.17;;;21.10;58.30;;;;;;5015438;28;20760;-67
2023/11/22 07:55:30;;;;;;;2.63;2.03;;;21.10;58.30;;;;;;5032916;28;20505;-67
2023/11/22 07:57:56;;;;;;;2.23;2.03;;;21.10;58.40;;;;;;5032663;28;20293;-67
2023/11/22 08:00:22;;;;;;;2.20;2.00;;;21.10;58.40;;;;;;5033132;28;20422;-67
2023/11/22 08:02:49;;;;;;;2.80;2.20;;;21.10;58.40;;;;;;5033128;28;20415;-69
2023/11/22 08:05:15;;;;;;;3.73;2.50;;;21.10;58.40;;;;;;5032603;28;20462;-68
2023/11/22 08:07:44;;;;;;;2.27;1.83;;;21.10;58.40;;;;;;5032762;28;20457;-68
2023/11/22 08:10:17;;;;;;;3.17;2.57;;;21.10;58.50;;;;;;5032578;28;21084;-68
2023/11/22 08:12:44;;;;;;;3.80;2.13;;;21.10;58.50;;;;;;5032597;28;20394;-68
2023/11/22 08:15:12;;;;;;;2.67;1.87;;;21.10;58.50;;;;;;5032731;28;20418;-68
2023/11/22 08:17:38;;;;;;;4.00;2.43;;;21.10;58.50;;;;;;5032826;28;20444;-67
2023/11/22 08:20:05;;;;;;;3.90;2.13;;;21.20;58.50;;;;;;5032882;28;20413;-68
2023/11/22 08:22:35;;;;;;;2.30;2.03;;;21.20;58.60;;;;;;5033088;28;20792;-68
2023/11/22 08:25:03;;;;;;;2.33;2.13;;;21.20;58.50;;;;;;5032819;28;20407;-68
2023/11/22 08:27:28;;;;;;;4.70;2.53;;;21.20;58.60;;;;;;5032615;28;20894;-67
2023/11/22 08:29:54;;;;;;;3.47;2.10;;;21.20;58.60;;;;;;5033110;28;20411;-68
2023/11/22 08:32:23;;;;;;;2.23;1.73;;;21.20;58.50;;;;;;5033100;28;20175;-67
2023/11/22 08:34:49;;;;;;;3.10;2.10;;;21.20;58.60;;;;;;5032699;28;20195;-68
2023/11/22 08:37:15;;;;;;;2.20;2.00;;;21.20;58.50;;;;;;5032954;28;20427;-67
2023/11/22 08:39:41;;;;;;;2.70;1.90;;;21.20;58.50;;;;;;5032914;28;20414;-67
2023/11/22 08:42:09;;;;;;;2.23;1.97;;;21.20;58.60;;;;;;5035470;28;20196;-67
2023/11/22 08:44:36;;;;;;;3.80;2.30;;;21.20;58.50;;;;;;5036417;28;20234;-67
2023/11/22 08:47:03;;;;;;;2.20;1.90;;;21.20;58.60;;;;;;5036529;28;21299;-67
2023/11/22 08:49:28;;;;;;;3.23;2.13;;;21.30;58.60;;;;;;5018438;28;20505;-66
2023/11/22 08:51:54;;;;;;;2.23;2.00;;;21.30;58.60;;;;;;5036269;28;20453;-69
2023/11/22 08:54:20;;;;;;;3.50;2.10;;;21.30;58.60;;;;;;5035746;28;20179;-68
2023/11/22 08:56:48;;;;;;;4.20;2.10;;;21.30;58.70;;;;;;5034911;28;20978;-68
2023/11/22 08:59:16;;;;;;;4.93;2.33;;;21.30;58.70;;;;;;5034117;28;20200;-69
2023/11/22 09:01:45;;;;;;;9.43;2.50;;;21.30;58.60;;;;;;5034232;28;20410;-69
2023/11/22 09:04:11;;;;;;;5.70;2.17;;;21.30;58.60;;;;;;5034158;28;20423;-69
2023/11/22 09:06:37;;;;;;;2.70;1.83;;;21.30;58.60;;;;;;5033997;28;20831;-70
2023/11/22 09:09:03;;;;;;;3.70;2.03;;;21.30;58.60;;;;;;5034548;28;20414;-68
2023/11/22 09:11:28;;;;;;;3.20;2.20;;;21.30;58.60;;;;;;5033255;28;20182;-69
2023/11/22 09:13:57;;;;;;;3.30;2.30;;;21.30;58.60;;;;;;5034037;28;20407;-69
2023/11/22 09:16:24;;;;;;;4.07;2.80;;;21.30;58.60;;;;;;5033535;28;20633;-68
2023/11/22 09:18:51;;;;;;;5.57;2.57;;;21.30;58.60;;;;;;5034118;28;20414;-67
2023/11/22 09:21:17;;;;;;;3.10;2.33;;;21.30;58.60;;;;;;5033402;28;20489;-69
2023/11/22 09:23:44;;;;;;;5.57;2.40;;;21.30;58.60;;;;;;5033534;28;20904;-71
2023/11/22 09:26:09;;;;;;;6.57;2.80;;;21.30;58.60;;;;;;5035081;28;20454;-71
2023/11/22 09:28:36;;;;;;;3.40;3.00;;;21.30;58.70;;;;;;5015369;28;20441;-69
2023/11/22 09:31:05;;;;;;;4.83;2.87;;;21.30;58.60;;;;;;5033855;28;20172;-68
2023/11/22 09:33:31;;;;;;;4.90;3.70;;;21.30;58.50;;;;;;5016385;28;20480;-68
2023/11/22 09:35:58;;;;;;;3.83;3.50;;;21.30;58.30;;;;;;5034979;28;20846;-68
2023/11/22 09:38:24;;;;;;;5.43;4.40;;;21.30;58.10;;;;;;5034425;28;20195;-67
2023/11/22 09:40:50;;;;;;;5.07;4.63;;;21.30;57.80;;;;;;5035219;28;20428;-68
2023/11/22 09:43:20;;;;;;;6.33;4.40;;;21.30;57.60;;;;;;5034757;28;20477;-68
2023/11/22 09:45:46;;;;;;;4.50;4.10;;;21.30;57.30;;;;;;5035082;28;20461;-68
2023/11/22 09:48:16;;;;;;;4.87;4.37;;;21.30;57.20;;;;;;5034475;28;20513;-68
2023/11/22 09:50:55;;;;;;;4.03;3.73;;;21.20;56.50;;;;;;5034234;28;20402;-66
2023/11/22 09:53:40;;;;;;;4.73;4.00;;;21.20;56.20;;;;;;5034174;28;20402;-66
2023/11/22 09:56:08;;;;;;;4.90;4.50;;;21.20;55.60;;;;;;5034596;28;20399;-66
2023/11/22 09:58:36;;;;;;;4.00;3.53;;;21.10;55.20;;;;;;5034722;28;20553;-67
2023/11/22 10:01:03;;;;;;;4.40;3.97;;;21.10;54.40;;;;;;5034419;28;20411;-67
2023/11/22 10:03:29;;;;;;;3.80;3.50;;;21.10;54.10;;;;;;5034851;28;20410;-67
2023/11/22 10:05:58;;;;;;;4.30;3.70;;;21.10;54.20;;;;;;5033214;28;20532;-68
2023/11/22 10:08:25;;;;;;;4.30;3.50;;;21.10;54.40;;;;;;5034107;28;20434;-67
2023/11/22 10:10:51;;;;;;;3.63;3.33;;;21.10;54.60;;;;;;5033281;28;20411;-68
2023/11/22 10:13:20;;;;;;;5.10;3.40;;;21.00;54.80;;;;;;5034197;28;20426;-67
2023/11/22 10:15:49;;;;;;;3.73;3.43;;;21.00;55.00;;;;;;5034384;28;20763;-68
2023/11/22 10:18:17;;;;;;;4.47;3.73;;;21.00;55.20;;;;;;5033597;28;20542;-67
2023/11/22 10:20:46;;;;;;;3.17;2.97;;;21.00;55.30;;;;;;5034105;28;20505;-68
2023/11/22 10:23:24;;;;;;;3.10;2.80;;;21.00;55.40;;;;;;5034281;28;20792;-67
2023/11/22 10:25:52;;;;;;;3.67;3.10;;;21.00;55.60;;;;;;5033488;28;20545;-67
2023/11/22 10:28:23;;;;;;;3.90;3.27;;;21.00;55.60;;;;;;5034300;28;20554;-67
2023/11/22 10:30:51;;;;;;;4.83;3.37;;;21.00;55.60;;;;;;5034157;28;20414;-66
2023/11/22 10:33:17;;;;;;;3.40;3.10;;;21.00;55.50;;;;;;5033628;28;20795;-66
2023/11/22 10:35:48;;;;;;;3.27;2.83;;;21.00;55.60;;;;;;5032439;28;20413;-66
2023/11/22 10:38:15;;;;;;;3.57;2.77;;;21.00;55.80;;;;;;5031307;28;20438;-66
2023/11/22 10:40:41;;;;;;;3.10;2.70;;;21.00;55.80;;;;;;5031392;28;20521;-67
2023/11/22 10:43:10;;;;;;;4.77;3.53;;;21.00;56.10;;;;;;5031344;28;20541;-67
2023/11/22 10:45:37;;;;;;;4.43;3.47;;;21.00;56.40;;;;;;5031042;28;20462;-67
2023/11/22 10:48:03;;;;;;;3.87;3.40;;;21.00;56.40;;;;;;5031294;28;20434;-64
2023/11/22 10:50:29;;;;;;;2.77;2.57;;;21.00;56.50;;;;;;5031118;28;20415;-67
2023/11/22 10:53:00;;;;;;;3.80;2.90;;;21.00;56.60;;;;;;5031130;28;20407;-68
2023/11/22 10:55:31;;;;;;;2.83;2.53;;;21.00;56.70;;;;;;5031748;28;21241;-66
2023/11/22 10:58:02;;;;;;;4.50;3.37;;;21.10;56.90;;;;;;5031095;28;20521;-66
2023/11/22 11:00:32;;;;;;;3.33;3.03;;;21.10;57.00;;;;;;5030973;28;20457;-67
2023/11/22 11:03:09;;;;;;;3.03;2.30;;;21.10;56.90;;;;;;5031359;28;20402;-67
2023/11/22 11:05:41;;;;;;;4.00;3.00;;;21.10;56.90;;;;;;5031247;28;20462;-66
2023/11/22 11:08:14;;;;;;;2.67;2.43;;;21.10;57.00;;;;;;5032238;28;20477;-68
2023/11/22 11:10:43;;;;;;;3.40;3.00;;;21.10;56.90;;;;;;5031548;28;20406;-69
2023/11/22 11:13:10;;;;;;;3.73;2.80;;;21.10;56.80;;;;;;5031791;28;20399;-68
2023/11/22 11:15:43;;;;;;;3.10;2.80;;;21.10;56.80;;;;;;5031631;28;20509;-68
2023/11/22 11:18:12;;;;;;;2.80;2.50;;;21.10;56.70;;;;;;5031540;28;20434;-68
2023/11/22 11:20:51;;;;;;;2.87;2.40;;;21.10;56.70;;;;;;5031570;28;20406;-67
2023/11/22 11:23:19;;;;;;;3.10;2.77;;;21.20;56.90;;;;;;5012930;28;20515;-68
2023/11/22 11:25:52;;;;;;;4.00;2.67;;;21.10;56.80;;;;;;5026621;28;20466;-67
2023/11/22 11:28:18;;;;;;;3.00;2.47;;;21.10;56.80;;;;;;5023932;28;20439;-68
2023/11/22 11:30:50;;;;;;;3.07;2.77;;;21.10;56.90;;;;;;5029660;28;20456;-69
2023/11/22 11:33:19;;;;;;;2.60;2.40;;;21.20;57.10;;;;;;5031607;28;20218;-68
2023/11/22 11:35:48;;;;;;;3.20;2.57;;;21.10;57.00;;;;;;5030974;28;20414;-67
2023/11/22 11:38:15;;;;;;;2.73;2.43;;;21.20;57.20;;;;;;5030703;28;21058;-68
2023/11/22 11:40:42;;;;;;;2.90;2.40;;;21.20;57.20;;;;;;5031515;28;20469;-68
2023/11/22 11:43:09;;;;;;;2.80;2.60;;;21.20;57.20;;;;;;5040865;28;20475;-69
2023/11/22 11:45:39;;;;;;;3.17;2.50;;;21.20;57.20;;;;;;5049105;28;20461;-68
2023/11/22 11:48:06;;;;;;;4.00;2.70;;;21.20;57.20;;;;;;5036420;28;20943;-68
2023/11/22 11:50:31;;;;;;;3.17;2.33;;;21.20;57.10;;;;;;5041930;28;21000;-68
2023/11/22 11:52:57;;;;;;;2.67;2.13;;;21.20;57.10;;;;;;5043382;28;20500;-68
2023/11/22 11:55:22;;;;;;;4.67;3.20;;;21.20;57.20;;;;;;5034866;28;20175;-67
2023/11/22 11:57:48;;;;;;;2.80;2.43;;;21.20;57.10;;;;;;5033409;28;20819;-67
2023/11/22 12:00:14;;;;;;;3.03;2.37;;;21.20;57.10;;;;;;5031446;28;20172;-67
2023/11/22 12:02:40;;;;;;;4.50;2.80;;;21.30;57.20;;;;;;5026723;28;20171;-68
2023/11/22 12:05:09;;;;;;;3.53;2.80;;;21.30;57.20;;;;;;5031479;28;20468;-67
2023/11/22 12:07:36;;;;;;;2.70;2.50;;;21.30;57.20;;;;;;5023270;28;20434;-68
2023/11/22 12:10:03;;;;;;;2.90;2.30;;;21.20;57.00;;;;;;5028878;28;20909;-69
2023/11/22 12:12:28;;;;;;;3.10;2.50;;;21.30;57.10;;;;;;5020908;28;20421;-68
2023/11/22 12:14:56;;;;;;;5.03;3.00;;;21.30;57.10;;;;;;5022278;28;20419;-68
2023/11/22 12:17:22;;;;;;;2.43;2.00;;;21.30;57.10;;;;;;5024880;28;20224;-69
2023/11/22 12:19:48;;;;;;;2.53;2.33;;;21.30;57.10;;;;;;5035387;28;20436;-68
2023/11/22 12:22:16;;;;;;;4.20;2.83;;;21.30;57.10;;;;;;5036342;28;20414;-67
2023/11/22 12:24:43;;;;;;;3.60;2.50;;;21.30;57.10;;;;;;5032400;28;20445;-68
2023/11/22 12:27:10;;;;;;;3.33;2.50;;;21.30;57.10;;;;;;5038983;28;21069;-69
2023/11/22 12:29:41;;;;;;;2.77;2.57;;;21.30;57.10;;;;;;5017614;28;20423;-67
2023/11/22 12:32:07;;;;;;;3.90;2.70;;;21.30;57.00;;;;;;5048776;28;20990;-68
2023/11/22 12:34:33;;;;;;;3.40;2.30;;;21.30;57.00;;;;;;5038073;28;20493;-68
2023/11/22 12:37:00;;;;;;;4.50;2.50;;;21.30;57.00;;;;;;5036107;28;20207;-67
2023/11/22 12:39:26;;;;;;;3.13;2.00;;;21.30;57.00;;;;;;5037667;28;20176;-68
2023/11/22 12:41:53;;;;;;;2.80;2.60;;;21.30;57.00;;;;;;5035471;28;20422;-67
2023/11/22 12:44:19;;;;;;;4.53;2.37;;;21.30;57.10;;;;;;5017905;28;20489;-67